Aérodrome :
LOGIN :

S'inscrire | Disclaimer

   EN    FR    IT 

 










Légende :    VFR   VFR Marginal   IFR   IFR Intensif   IFR Très Intensif
Visi : 
Plafond : 
>= 8 km
>= 3000ft
5 à 8 km
1000 à 3000 ft
1500m à 5 km
500 à 1000 ft
800 à 1500m
200 à 500 ft
< 800m
< 200 ft
Symboles :   Orages  Brouillard  Fortes neiges  Fortes précipitations  Vent > 20 kt
SIGMETs :   Divers  Orages  Givrage  Turbulence  Onde Orograph.  Cendres Volcan.







- Altitude de l'aérodrome : 123 ft
- Code IATA : BLQ


LIPE - Bologna Guglielmo Marconi

DERNIER METAR :
  • 131820Z 24004KT CAVOK 04/02 Q1015

METARs EXPIRÉS :
  • 131750Z 25003KT CAVOK 04/03 Q1016
  • 131720Z VRB01KT CAVOK 04/03 Q1015
  • 131650Z VRB02KT CAVOK 05/04 Q1015
  • 131620Z 05004KT 9999 FEW055 06/03 Q1015
  • 131550Z VRB01KT CAVOK 06/03 Q1016

TAF TAF LIPE
Valide du 13 à 18h jusqu'au 14 à 18h UTC


131700Z 1318/1418 VRB05KT 7000 FEW050
BECMG 1318/1320 3000 BR
BECMG 1322/1324 0500 FG BKN010
BECMG 1408/1410 5000 NSC
Pas de NOTAMs connus pour ce terrain.



MET'MAP, la Météo Aéronautique d'un coup d'oeil ! - Copyright ORBIFLY Décembre 2007 - Disclaimer

ORBIFLY MET'MAP TEAM :

Programmation & Développement : Alexandra Zaïnal
Conception & Développement : Baudouin d'Aumeries
Co-Programmation & Développement : Marc-Olivier Méhu
Soutien technique & logistique : Manuel Goepfert

Contact : metmap@orbifly.com




SOURCES & CREDITS :

   NOAA